createdAt,value
2017-12-19T00:00:56.634Z,17.47
2017-12-19T00:03:25.022Z,22.20
2017-12-19T00:05:53.878Z,15.57
2017-12-19T00:08:21.598Z,18.93
2017-12-19T00:10:50.558Z,19.47
2017-12-19T00:13:18.600Z,14.40
2017-12-19T00:15:46.643Z,17.60
2017-12-19T00:18:14.709Z,18.33
2017-12-19T00:20:42.750Z,14.70
2017-12-19T00:23:11.226Z,13.70
2017-12-19T00:25:39.717Z,14.27
2017-12-19T00:28:08.193Z,14.73
2017-12-19T00:30:37.333Z,16.70
2017-12-19T00:33:05.716Z,12.73
2017-12-19T00:35:33.871Z,17.80
2017-12-19T00:38:01.911Z,16.80
2017-12-19T00:40:30.406Z,18.03
2017-12-19T00:42:58.775Z,18.73
2017-12-19T00:45:27.606Z,19.70
2017-12-19T00:47:56.040Z,16.47
2017-12-19T00:50:25.192Z,15.17
2017-12-19T00:52:52.913Z,14.70
2017-12-19T00:55:21.322Z,15.60
2017-12-19T00:57:49.707Z,16.00
2017-12-19T01:00:18.128Z,16.00
2017-12-19T01:02:46.993Z,12.30
2017-12-19T01:05:15.207Z,14.53
2017-12-19T01:07:43.596Z,19.33
2017-12-19T01:10:11.994Z,14.80
2017-12-19T01:12:40.387Z,17.43
2017-12-19T01:15:08.433Z,17.60
2017-12-19T01:17:36.501Z,15.77
2017-12-19T01:20:04.883Z,15.07
2017-12-19T01:22:32.920Z,19.13
2017-12-19T01:25:01.322Z,14.27
2017-12-19T01:27:29.714Z,12.50
2017-12-19T01:29:58.086Z,17.87
2017-12-19T01:32:26.482Z,11.30
2017-12-19T01:34:54.872Z,13.87
2017-12-19T01:37:23.266Z,20.00
2017-12-19T01:39:52.424Z,19.93
2017-12-19T01:42:20.808Z,27.97
2017-12-19T01:44:49.189Z,22.17
2017-12-19T01:47:17.589Z,23.10
2017-12-19T01:49:45.973Z,22.10
2017-12-19T01:52:15.527Z,14.00
2017-12-19T01:54:43.920Z,20.43
2017-12-19T01:57:12.302Z,15.07
2017-12-19T01:59:40.686Z,17.20
2017-12-19T02:02:09.068Z,11.63
2017-12-19T02:04:37.446Z,12.00
2017-12-19T02:07:05.844Z,15.20
2017-12-19T02:09:34.236Z,18.83
2017-12-19T02:12:03.582Z,15.60
2017-12-19T02:14:31.966Z,12.67
2017-12-19T02:16:59.694Z,14.90
2017-12-19T02:19:27.410Z,12.13
2017-12-19T02:21:55.133Z,11.50
2017-12-19T02:24:22.869Z,13.87
2017-12-19T02:26:52.061Z,21.90
2017-12-19T02:29:20.537Z,27.47
2017-12-19T02:31:49.033Z,14.33
2017-12-19T02:34:16.774Z,18.53
2017-12-19T02:36:44.516Z,17.30
2017-12-19T02:39:12.250Z,14.50
2017-12-19T02:41:39.966Z,15.07
2017-12-19T02:44:08.446Z,16.93
2017-12-19T02:46:36.942Z,14.27
2017-12-19T02:49:05.422Z,17.20
2017-12-19T02:51:33.902Z,18.70
2017-12-19T02:54:02.406Z,12.43
2017-12-19T14:51:54.497Z,44.27
2017-12-19T14:54:23.651Z,42.10
2017-12-19T14:56:51.360Z,54.40
2017-12-19T14:59:20.186Z,38.47
2017-12-19T15:01:48.560Z,48.20
2017-12-19T15:04:17.735Z,52.20
2017-12-19T15:06:46.784Z,45.43
2017-12-19T15:09:17.692Z,43.23
2017-12-19T15:11:46.082Z,53.87
2017-12-19T15:14:14.474Z,39.00
2017-12-19T15:16:42.862Z,47.60
2017-12-19T15:19:12.132Z,44.93
2017-12-19T15:21:41.444Z,49.10
2017-12-19T15:24:09.830Z,53.57
2017-12-19T15:26:38.210Z,42.00
2017-12-19T15:29:06.608Z,51.13
2017-12-19T15:31:35.758Z,49.37
2017-12-19T15:34:04.134Z,52.20
2017-12-19T15:36:32.525Z,44.73
2017-12-19T15:39:00.921Z,44.23
2017-12-19T15:41:29.338Z,46.30
2017-12-19T15:43:57.730Z,39.23
2017-12-19T15:46:26.543Z,56.73
2017-12-19T15:48:54.586Z,47.77
2017-12-19T15:51:22.964Z,56.40
2017-12-19T15:53:51.397Z,43.80
2017-12-19T15:56:19.818Z,45.80
2017-12-19T15:58:48.201Z,50.03
2017-12-19T16:01:16.576Z,46.23
2017-12-19T16:03:44.945Z,50.20
2017-12-19T16:06:13.332Z,50.47
2017-12-19T16:08:41.732Z,54.07
2017-12-19T16:11:10.121Z,50.03
2017-12-19T16:13:38.510Z,46.83
2017-12-19T16:16:06.890Z,47.07
2017-12-19T16:18:35.300Z,56.47
2017-12-19T16:21:04.469Z,60.93
2017-12-19T16:23:33.770Z,50.43
2017-12-19T16:26:02.190Z,54.93
2017-12-19T16:28:30.584Z,55.97
2017-12-19T16:30:58.974Z,50.10
2017-12-19T16:33:27.353Z,52.43
2017-12-19T16:35:55.750Z,45.60
2017-12-19T16:38:24.125Z,58.23
2017-12-19T16:40:52.501Z,46.80
2017-12-19T16:43:21.025Z,50.40
2017-12-19T16:45:49.457Z,45.80
2017-12-19T16:48:18.132Z,60.47
2017-12-19T16:50:46.521Z,51.00
2017-12-19T16:53:14.902Z,53.07
2017-12-19T16:55:43.284Z,50.93
2017-12-19T16:58:11.664Z,54.43
2017-12-19T17:00:40.982Z,48.80
2017-12-19T17:03:09.880Z,52.37
2017-12-19T17:05:39.042Z,50.93
2017-12-19T17:08:07.418Z,51.20
2017-12-19T17:10:35.802Z,54.90
2017-12-19T17:13:05.058Z,46.03
2017-12-19T17:15:33.447Z,49.37
2017-12-19T17:18:01.830Z,51.03
2017-12-19T17:20:30.210Z,47.90
2017-12-19T17:22:58.593Z,54.10
2017-12-19T17:25:28.731Z,39.27
2017-12-19T17:27:57.118Z,53.73
2017-12-19T17:30:25.497Z,42.10
2017-12-19T17:32:53.919Z,49.20
2017-12-19T17:35:23.233Z,44.83
2017-12-19T17:37:51.613Z,47.57
2017-12-19T17:40:20.181Z,52.57
2017-12-19T17:42:50.045Z,49.77
2017-12-19T17:45:18.463Z,38.67
2017-12-19T17:47:46.834Z,56.13
2017-12-19T17:50:15.221Z,46.20
2017-12-19T17:52:43.604Z,47.30
2017-12-19T17:55:11.978Z,45.53
2017-12-19T17:57:40.395Z,46.70
2017-12-19T18:00:08.778Z,44.07
2017-12-19T18:02:37.164Z,45.97
2017-12-19T18:05:05.560Z,49.13
2017-12-19T18:07:34.714Z,57.60
2017-12-19T18:10:03.088Z,52.00
2017-12-19T18:12:31.472Z,48.40
2017-12-19T18:14:59.860Z,44.33
2017-12-19T18:17:28.237Z,47.83
2017-12-19T18:19:56.622Z,50.07
2017-12-19T18:22:25.009Z,48.00
2017-12-19T18:24:53.758Z,51.67
2017-12-19T18:27:22.356Z,43.43
2017-12-19T18:29:50.753Z,49.33
2017-12-19T18:32:19.131Z,46.10
2017-12-19T18:34:47.519Z,51.00
2017-12-19T18:37:15.899Z,53.37
2017-12-19T18:39:44.289Z,50.00
2017-12-19T18:42:13.440Z,46.97
2017-12-19T18:44:41.821Z,45.47
2017-12-19T18:47:10.206Z,43.30
2017-12-19T18:49:38.594Z,48.43
2017-12-19T18:52:06.970Z,48.67
2017-12-19T18:54:35.345Z,46.33
2017-12-19T18:57:03.741Z,38.80
2017-12-19T18:59:32.890Z,41.63
2017-12-19T19:02:01.287Z,39.47
2017-12-19T19:04:29.668Z,44.87
2017-12-19T19:06:58.953Z,45.57
2017-12-19T19:09:27.339Z,50.40
2017-12-19T19:11:55.749Z,46.00
2017-12-19T19:14:24.322Z,44.10
2017-12-19T19:16:52.697Z,46.93
2017-12-19T19:19:21.088Z,49.47
2017-12-19T19:21:50.228Z,41.70
2017-12-19T19:24:18.602Z,44.80
2017-12-19T19:26:47.432Z,42.27
2017-12-19T19:29:15.812Z,46.57
2017-12-19T19:31:44.187Z,40.10
2017-12-19T19:34:12.573Z,38.60
2017-12-19T19:36:40.954Z,46.07
2017-12-19T19:39:09.326Z,42.70
2017-12-19T19:41:37.706Z,52.97
2017-12-19T19:44:06.077Z,49.13
2017-12-19T19:46:35.218Z,56.23
2017-12-19T19:49:03.450Z,49.93
2017-12-19T19:51:31.836Z,52.40
2017-12-19T19:54:00.217Z,44.20
2017-12-19T19:56:29.391Z,52.33
2017-12-19T19:58:57.771Z,50.23
2017-12-19T20:01:26.152Z,40.17
2017-12-19T20:03:54.555Z,57.43
2017-12-19T20:06:23.703Z,67.03
2017-12-19T20:08:52.084Z,57.43
2017-12-19T20:11:20.482Z,59.50
2017-12-19T20:13:48.858Z,58.80
2017-12-19T20:16:17.240Z,60.13
2017-12-19T20:18:45.634Z,58.07
2017-12-19T20:21:14.784Z,56.27
2017-12-19T20:23:43.178Z,60.20
2017-12-19T20:26:11.574Z,62.43
2017-12-19T20:28:40.098Z,58.80
2017-12-19T20:31:08.475Z,60.37
2017-12-19T20:33:36.859Z,61.03
2017-12-19T20:36:05.245Z,55.37
2017-12-19T20:38:33.629Z,56.90
2017-12-19T20:41:02.024Z,57.27
2017-12-19T20:43:30.409Z,52.23
2017-12-19T20:45:58.793Z,54.97
2017-12-19T20:48:27.180Z,53.47
2017-12-19T20:50:55.556Z,52.57
2017-12-19T20:53:23.951Z,47.07
2017-12-19T20:55:53.102Z,48.30
2017-12-19T20:58:21.482Z,49.07
2017-12-19T21:00:49.878Z,44.50
2017-12-19T21:03:18.268Z,46.43
2017-12-19T21:05:46.648Z,44.67
2017-12-19T21:08:15.026Z,47.57
2017-12-19T21:10:44.189Z,52.67
2017-12-19T21:13:12.574Z,56.53
2017-12-19T21:15:40.968Z,46.67
2017-12-19T21:18:09.362Z,50.70
2017-12-19T21:20:38.513Z,47.87
2017-12-19T21:23:06.563Z,45.80
2017-12-19T21:25:34.955Z,49.57
2017-12-19T21:28:03.329Z,53.87
2017-12-19T21:30:31.711Z,53.50
2017-12-19T21:33:00.085Z,50.33
2017-12-19T21:35:28.473Z,50.00
2017-12-19T21:37:56.844Z,45.67
2017-12-19T21:40:25.231Z,48.33
2017-12-19T21:42:53.620Z,53.47
2017-12-19T21:45:22.004Z,45.53
2017-12-19T21:47:50.391Z,52.23
2017-12-19T21:50:18.781Z,54.53
2017-12-19T21:52:47.926Z,51.00
2017-12-19T21:55:16.310Z,58.63
2017-12-19T21:57:44.862Z,50.20
2017-12-19T22:00:13.242Z,57.40
2017-12-19T22:02:41.632Z,53.57
2017-12-19T22:05:10.014Z,58.57
2017-12-19T22:07:38.391Z,50.53
2017-12-19T22:10:06.785Z,52.33
2017-12-19T22:12:35.157Z,66.07
2017-12-19T22:15:03.619Z,62.00
2017-12-19T22:17:32.005Z,67.90
2017-12-19T22:20:00.381Z,58.40
2017-12-19T22:22:28.762Z,54.90
2017-12-19T22:24:56.964Z,46.80
2017-12-19T22:27:25.346Z,56.60
2017-12-19T22:29:53.740Z,60.40
2017-12-19T22:32:22.178Z,56.07
2017-12-19T22:34:50.556Z,49.17
2017-12-19T22:37:18.930Z,53.37
2017-12-19T22:39:47.346Z,48.93
2017-12-19T22:42:15.725Z,52.07
2017-12-19T22:44:44.103Z,48.20
2017-12-19T22:47:12.526Z,51.30
2017-12-19T22:49:41.854Z,49.83
2017-12-19T22:52:10.237Z,50.20
2017-12-19T22:54:38.647Z,50.03
2017-12-19T22:57:07.789Z,51.10
2017-12-19T22:59:36.179Z,49.53
2017-12-19T23:02:04.576Z,52.80
2017-12-19T23:04:32.977Z,49.47
2017-12-19T23:07:03.067Z,45.17
2017-12-19T23:09:31.446Z,42.63
2017-12-19T23:11:59.828Z,52.23
2017-12-19T23:14:28.205Z,41.40
2017-12-19T23:16:56.593Z,43.47
2017-12-19T23:19:24.964Z,38.83
2017-12-19T23:21:53.360Z,35.30
2017-12-19T23:24:22.505Z,34.53
2017-12-19T23:26:50.890Z,37.50
2017-12-19T23:29:19.262Z,41.90
2017-12-19T23:31:47.651Z,32.97
2017-12-19T23:34:16.030Z,27.57
2017-12-19T23:36:44.740Z,37.30
2017-12-19T23:39:13.894Z,32.90
2017-12-19T23:41:42.282Z,34.60
2017-12-19T23:44:10.660Z,30.00
2017-12-19T23:46:39.061Z,33.43
2017-12-19T23:49:07.436Z,40.37
2017-12-19T23:51:35.825Z,38.07
2017-12-19T23:54:04.221Z,32.10
2017-12-19T23:56:33.369Z,34.30
2017-12-19T23:59:02.881Z,31.53
